arxmliv
arxmliv build tool
 
KWARC group
LaTeXML
About
   
 

Detailed info

Back to Homepage

List of missing_macros

No. Date Filename num_warningnum_errornum_xmargok_xmargnum_xmathok_xmathMissing macros
65401 2013-03-19 06:36:54 /9612/hep-ph.9612292 160000[\@makecaption, \@parboxrestore].
65402 2013-03-19 06:35:09 /9612/hep-ph.9612272 670000[\Vertex, \ArrowLine, \Text, \Line, \DashCArc, \Photon, \DashLine].
65403 2013-03-19 06:33:45 /9612/hep-ph.9612237 8680000[\Line, \ArrowArc, \ArrowLine, \Photon, \CArc, \Boxc, \DashLine, \DashArrowLine].
65404 2013-03-19 06:33:31 /9612/hep-ph.9612246 3310000[\leftmargin].
65405 2013-03-19 06:29:18 /9612/hep-ph.9612222 2610000[\citet].
65406 2013-03-19 06:29:17 /9612/hep-ph.9612206 960000[{sideways}].
65407 2013-03-19 06:29:15 /9612/hep-ph.9612219 250000[\quref, \bigi, \refout, \RF]; 1 missing file[phys].
65408 2013-03-19 06:29:10 /9612/hep-ph.9612221 210000[\citet].
65409 2013-03-19 06:29:00 /9612/hep-ph.9612207 2210000[\citen].
65410 2013-03-19 06:28:12 /9612/hep-lat.9612024 110000[\rotate].
65411 2013-03-19 06:27:59 /9612/hep-ph.9612202 010000[{centering}].
65412 2013-03-19 06:27:41 /9612/hep-lat.9612012 510000[\firstfigfalse].
65413 2013-03-19 06:27:17 /9612/hep-lat.9612006 510000[{centering}].
65414 2013-03-19 06:27:12 /9612/hep-lat.9612007 4120000[\fpsbox, \epsfxsize].
65415 2013-03-19 06:26:31 /9612/hep-ex.9612012 15550000[Align]; 1 missing file[snow2ex.cls].
65416 2013-03-19 06:25:35 /9612/gr-qc.9612067 140000[\BoxedEPSF, \SetRokickiEPSFSpecial, \HideDisplacementBoxes]; 1 missing file[boxedeps].
65417 2013-03-19 06:25:18 /9612/gr-qc.9612043 1110000[\mathhexbox].
65418 2013-03-19 06:24:46 /9612/gr-qc.9612057 0360000[\dosupereject, \vfootnote].
65419 2013-03-19 06:24:39 /9612/gr-qc.9612049 2010000[\citationstyle].
65420 2013-03-19 06:24:35 /9612/gr-qc.9612042 6540000[\institute, \runningtitle, {opening}].
65421 2013-03-19 06:23:11 /9612/gr-qc.9612036 6310000[\dosupereject, \vfootnote].
65422 2013-03-19 06:22:30 /9612/gr-qc.9612031 1190000[\sloppy, \marginparsep, \marginparwidth, \evensidemargin, \flushbottom, \oddsidemargin, \leftmargini, \leftmarginv, \leftmarginvi].
65423 2013-03-19 06:22:14 /9612/dg-ga.9612011 144290000[\Lin, {Theorem}, {Corollary}, \ipif, \N, \dere, \inprod, \dera, \C, \der, \Op, \li, \Opstar, {Lemma}, \Oppsi, {Example}, \e, \theDefinition, \Iso, \R, {Definition}, {Proposition}, {Proof}, \derb, {Note}, \ipifs, \supp]; 1 missing file[mpmath.sty].
65424 2013-03-19 06:22:07 /9612/gr-qc.9612014 31180000[\@open@row, \ftnote].
65425 2013-03-19 06:21:39 /9612/gr-qc.9612017 030000[\cvol, \cyear]; 1 missing file[fic.sty].
65426 2013-03-19 06:21:30 /9612/gr-qc.9612018 050000[Align, \+, \cvol, \cyear]; 1 missing file[fic.sty].
65427 2013-03-19 06:20:51 /9612/gr-qc.9612009 1050000[{acknowledgments}, \firstsection, \epsffileline, \affiliation]; 1 missing file[cupconf.sty].
65428 2013-03-19 06:20:41 /9612/funct-an.9612004 1720000[\examplename, \arabic].
65429 2013-03-19 06:20:17 /9612/dg-ga.9612018 9350000[\texture, \shade, \ellipse, \dashline, \path].
65430 2013-03-19 06:19:30 /9612/dg-ga.9612003 2120000[\nmid, \normalshape].
65431 2013-03-19 06:19:15 /9612/dg-ga.9612016 5650000[\a, \epsfbox, \rtimes, \normalshape, \epsfxsize].
65432 2013-03-19 06:19:09 /9612/dg-ga.9612017 1630000[\node, \arrow, {diagram}].
65433 2013-03-19 06:17:56 /9612/cond-mat.9612246 320000[\psfig]; 1 missing file[psfig].
65434 2013-03-19 06:17:42 /9612/cond-mat.9612234 050000[\psfig]; 2 missing files[jcp3b.sty, psfig].
65435 2013-03-19 06:17:17 /9612/cond-mat.9612237 1110000[\psfigurepath].
65436 2013-03-19 06:15:48 /9612/cond-mat.9612217 020000[\psfig]; 1 missing file[psfig].
65437 2013-03-19 06:13:22 /9612/cond-mat.9612190 310000[\psfig].
65438 2013-03-19 06:12:56 /9612/cond-mat.9612175 460000[\@thanks, \@authoraddress, \@preprint, \@date, \@title, \@abstract].
65439 2013-03-19 06:12:53 /9612/cond-mat.9612178 1220000[\psfig]; 1 missing file[psfig.tex].
65440 2013-03-19 06:10:46 /9612/cond-mat.9612160 2830000[\ftnote, \epsfbox, \epsfxsize].
65441 2013-03-19 06:07:48 /9612/cond-mat.9612150 1210000[\vfootnote].
65442 2013-03-19 06:00:23 /9612/cond-mat.9612137 2920000[\psfig]; 1 missing file[psfig].
65443 2013-03-19 05:59:59 /9612/cond-mat.9612138 420000[\psfig]; 1 missing file[psfig].
65444 2013-03-19 05:57:56 /9612/cond-mat.9612129 9910000[\CITE].
65445 2013-03-19 05:55:42 /9612/cond-mat.9612120 510000[\theappendix].
65446 2013-03-19 05:54:29 /9612/cond-mat.9612105 2260000[\@thanks, \@title].
65447 2013-03-19 05:53:50 /9612/cond-mat.9612107 120000[\epsffile, \epsfysize].
65448 2013-03-19 05:52:57 /9612/cond-mat.9612083 120000[\psfig]; 1 missing file[psfig].
65449 2013-03-19 05:52:56 /9612/cond-mat.9612085 620000[\psfig]; 1 missing file[psfig].
65450 2013-03-19 05:46:36 /9612/chao-dyn.9612025 5010000[\epsfsize].
65451 2013-03-19 05:46:10 /9612/cmp-lg.9612002 460000[\address, \ninept, \psfig, \name]; 2 missing files[icassp91.sty, psfig].
65452 2013-03-19 05:46:00 /9612/cmp-lg.9612004 150000[\address, \psfig, \name]; 2 missing files[icassp91.sty, psfig].
65453 2013-03-19 05:45:24 /9612/astro-ph.9612240 45360000[\nl, \apj, {deluxetable}, \startdata, \epsfbox, \reference, {references}, \araa, \enddata, \epsfxsize, \tablenotetext, \tablehead, \tablewidth, \apjs, \mnras, Align, \physrep, \tablecaption, \tablenotemark, \acknowledgements, \plottwo].
65454 2013-03-19 05:45:01 /9612/chao-dyn.9612008 020000[\psbox]; 1 missing file[epsbox.sty].
65455 2013-03-19 05:44:46 /9612/chao-dyn.9612010 010000[{AMS}].
65456 2013-03-19 05:44:40 /9612/chao-dyn.9612011 250000[{twocolumns}]; 2 missing files[flafter.sty, balanced.sty].
65457 2013-03-19 05:44:22 /9612/astro-ph.9612242 5820000[\displaylimits]; 1 missing file[refs.tmp].
65458 2013-03-19 05:44:20 /9612/chao-dyn.9612001 420000[\psfig]; 1 missing file[psfig].
65459 2013-03-19 05:44:11 /9612/astro-ph.9612232 1610000[\load].
65460 2013-03-19 05:43:59 /9612/astro-ph.9612244 610000[\psfig].
65461 2013-03-19 05:43:52 /9612/chao-dyn.9612002 520000[\ldotp, \cdotp].
65462 2013-03-19 05:43:32 /9612/astro-ph.9612231 130000[\astroncite, \psfig]; 1 missing file[esa_sp_latex.sty].
65463 2013-03-19 05:43:22 /9612/astro-ph.9612233 050000[\epsfbox, \institute, \runningtitle, {opening}, \epsfysize].
65464 2013-03-19 05:43:20 /9612/astro-ph.9612235 160000[\reference, {references}, \altaffiltext, {resumen}, \altaffilmark]; 1 missing file[rmaaconf.sty].
65465 2013-03-19 05:43:06 /9612/astro-ph.9612219 030000[\heading]; 1 missing file[conf_iap.sty].
65466 2013-03-19 05:42:53 /9612/astro-ph.9612212 8140000[\psfig]; 1 missing file[psfig].
65467 2013-03-19 05:42:51 /9612/astro-ph.9612209 120000[\psfig]; 1 missing file[psfig.tex].
65468 2013-03-19 05:42:44 /9612/astro-ph.9612208 0140000[\reference, {references}, \altaffiltext, \plotfiddle, \acknowledgments, \plottwo, \keywords, \altaffilmark]; 1 missing file[paspconf.sty].
65469 2013-03-19 05:42:33 /9612/astro-ph.9612213 020000[\psfig]; 1 missing file[psfig].
65470 2013-03-19 05:42:20 /9612/astro-ph.9612207 1860000[\Text, \Vertex, \ArrowLine, \DashCurve, \DashArrowArcn, \DashArrowLine].
65471 2013-03-19 05:42:18 /9612/astro-ph.9612206 2200000[\phs, \apj, \phm, \aaps, \pasj, \apjl, \nat, \aap, \pasp, \reference, {references}, \colhead, \nodata, \aj, \mnras, \apjs, \phn, \tablenotemark, \acknowledgements]; 1 missing file[apj.sty].
65472 2013-03-19 05:42:02 /9612/astro-ph.9612201 020000[\sun, \epsfig].
65473 2013-03-19 05:41:50 /9612/astro-ph.9612204 3070000[\surname, \runningauthor, \psfig, \institute, \acknowledgements, {opening}, \keywords].
65474 2013-03-19 05:41:47 /9612/astro-ph.9612193 1010000[\psfig].
65475 2013-03-19 05:40:51 /9612/astro-ph.9612192 040000[\astroncite, \psfig]; 1 missing file[esa_sp_latex.sty].
65476 2013-03-19 05:40:43 /9612/astro-ph.9612194 280000[\psboxto, \astroncite]; 2 missing files[esa_sp_latex.sty, psbox.tex].
65477 2013-03-19 05:40:42 /9612/astro-ph.9612196 1130000[\affil, \apj, \reference, {references}, \psfig, \acknowledgments, \keywords]; 2 missing files[psfig, paspconf.sty].
65478 2013-03-19 05:40:31 /9612/astro-ph.9612178 050000[\abstracts, \psfig]; 1 missing file[psfig].
65479 2013-03-19 05:40:29 /9612/astro-ph.9612177 720000[\psfig, \institute].
65480 2013-03-19 05:40:13 /9612/astro-ph.9612185 12220000[\titlerunning, \psfig, \institute].
65481 2013-03-19 05:39:47 /9612/astro-ph.9612171 1210000[\theappendix].
65482 2013-03-19 05:39:47 /9612/astro-ph.9612175 8480000[\epsffile, \epsfxsize].
65483 2013-03-19 05:39:33 /9612/astro-ph.9612168 030000[\epsfig].
65484 2013-03-19 05:39:08 /9612/astro-ph.9612170 070000[\mnras, \apj, \journal, \aj, \abstracts, \jrasc].
65485 2013-03-19 05:39:02 /9612/astro-ph.9612173 020000[\epsfbox, \epsfxsize].
65486 2013-03-19 05:38:50 /9612/astro-ph.9612157 440000[\epsfig].
65487 2013-03-19 05:38:45 /9612/astro-ph.9612176 570000[\psfig].
65488 2013-03-19 05:38:36 /9612/astro-ph.9612158 010000[\picplace].
65489 2013-03-19 05:38:24 /9612/astro-ph.9612164 4220000[\theappendix, \ifSFB@referee].
65490 2013-03-19 05:37:38 /9612/astro-ph.9612148 0170000[\affil, \apj, \tablenotetext, \tableline, \acknowledgments, \keywords, \mnras, \reference, \plotone, \tablenotemark, \araa, \plottwo]; 1 missing file[paspconf.sty].
65491 2013-03-19 05:37:36 /9612/astro-ph.9612150 9370000[\psfig].
65492 2013-03-19 05:36:27 /9612/astro-ph.9612139 270000[\reference, {references}, \altaffiltext, \authoremail, \keywords, \altaffilmark]; 1 missing file[fake.sty].
65493 2013-03-19 05:36:18 /9612/astro-ph.9612140 030000[\institute, \runningtitle, {opening}].
65494 2013-03-19 05:35:49 /9612/astro-ph.9612127 0260000[\inserttwofigures, \apj, \lesssim, \apjl, \ga, \nat, \sun, \reference, {mathletters}, {references}, \aj, \tablenotetext, \epsscale, \tableline, \altaffilmark, \la, \keywords, \markcite, \insertfigure, \apjs, \mnras, \altaffiltext, \tablenotemark, \acknow
65495 2013-03-19 05:35:46 /9612/astro-ph.9612146 1330000[\psfull, \psfig]; 1 missing file[psfig].
65496 2013-03-19 05:35:21 /9612/astro-ph.9612129 370000[\surname, \runningauthor, \psfig, \institute, \acknowledgements, {opening}, \keywords].
65497 2013-03-19 05:34:42 /9612/astro-ph.9612136 410000[\institute].
65498 2013-03-19 05:34:33 /9612/astro-ph.9612120 2100000[\psfig, \institute, {opening}].
65499 2013-03-19 05:34:30 /9612/astro-ph.9612119 010000[\epsfig].
65500 2013-03-19 05:34:26 /9612/astro-ph.9612121 620000[\psfig]; 1 missing file[psfig].
65501 2013-03-19 05:34:07 /9612/astro-ph.9612126 180000[\authorsrightcol, \IBVShead, \references, \farcm, \beginauthors, \endauthors, \begintext]; 1 missing file[ibvs.sty].
65502 2013-03-19 05:34:04 /9612/astro-ph.9612109 040000[\affil, \reference, {references}]; 1 missing file[paspconf.sty].
65503 2013-03-19 05:34:00 /9612/astro-ph.9612108 230000[\institute, \runningtitle, {opening}].
65504 2013-03-19 05:33:50 /9612/astro-ph.9612111 0120000[\affil, \reference, {references}, \altaffiltext, \plotfiddle, \acknowledgments, \keywords, \altaffilmark]; 1 missing file[paspconf.sty].
65505 2013-03-19 05:33:18 /9612/astro-ph.9612098 110000[\epsfig].
65506 2013-03-19 05:33:14 /9612/astro-ph.9612100 050000[\evenpagefooter, \oddpagefooter, \institute, {opening}]; 1 missing file[memsait.sty].
65507 2013-03-19 05:33:11 /9612/astro-ph.9612103 020000[\psfig]; 1 missing file[psfig].
65508 2013-03-19 05:33:06 /9612/astro-ph.9612105 3130000[\affil, \apj, \apjl, \acknowledgments, \keywords, \micron, {answer}, \plotone, \reference, {question}, {references}, \araa]; 1 missing file[paspconf.sty].
65509 2013-03-19 05:33:05 /9612/astro-ph.9612088 2350000[\ref, \titlea, \KEYWORDS, \AUTHOR, \THESAURUS, \maketitle, \OFFPRINTS, \begref, \titleb, \begtabfullwid, \INSTITUTE, \endtab, \tabcap, \newline, \endfig, \begfig, \DATE, \ABSTRACT, \figure, \la, \acknow, \MAINTITLE]; 1 missing file[aa.cmm].
65510 2013-03-19 05:33:00 /9612/astro-ph.9612087 090000[\affil, \apjs, \mnras, \apj, \reference, \apss, {references}, \aap]; 1 missing file[paspconf.sty].
65511 2013-03-19 05:32:42 /9612/astro-ph.9612092 080000[\affil, \apj, \reference, \plotone, {references}, \acknowledgments, \keywords]; 1 missing file[paspconf.sty].
65512 2013-03-19 05:32:41 /9612/astro-ph.9612078 2190000[\affil, \apj, \apss, \apjl, \ga, \aap, \la, \keywords, \aapr, \apjs, \mnras, \reference, {references}]; 1 missing file[paspconf.sty].
65513 2013-03-19 05:32:40 /9612/astro-ph.9612094 070000[\affil, \reference, \plotone, \aaps, {references}, \aap]; 1 missing file[paspconf.sty].
65514 2013-03-19 05:32:37 /9612/astro-ph.9612079 410000[\picplace].
65515 2013-03-19 05:32:34 /9612/astro-ph.9612095 010000[\nofiles].
65516 2013-03-19 05:32:23 /9612/astro-ph.9612080 120000[\epsfig]; 1 missing file[esa_sp_latex.sty].
65517 2013-03-19 05:32:13 /9612/astro-ph.9612081 050000[\evenpagefooter, \oddpagefooter, \institute, {opening}]; 1 missing file[memsait.sty].
65518 2013-03-19 05:32:13 /9612/astro-ph.9612082 060000[\evenpagefooter, \oddpagefooter, \institute, \acknowledgements, {opening}]; 1 missing file[memsait.sty].
65519 2013-03-19 05:32:06 /9612/astro-ph.9612083 050000[\evenpagefooter, \oddpagefooter, \institute, {opening}]; 1 missing file[memsait.sty].
65520 2013-03-19 05:31:59 /9612/astro-ph.9612085 2110000[\@thanks, \@headnote, \@topnum, \@title, \c@@inst, \c@@auth, \@subtitle]; 1 missing file[psfig].
65521 2013-03-19 05:31:53 /9612/astro-ph.9612086 130000[\epsffile].
65522 2013-03-19 05:31:15 /9612/astro-ph.9612058 020000[\epsffile, \epsfxsize].
65523 2013-03-19 05:31:03 /9612/astro-ph.9612061 330000[\psfig]; 1 missing file[psfig].
65524 2013-03-19 05:30:44 /9612/astro-ph.9612065 2130000[\affil, \apj, \aj, \apss, \aap, \acknowledgments, \keywords, \apjs, \mnras, \reference, {references}, \araa]; 1 missing file[paspconf.sty].
65525 2013-03-19 05:30:36 /9612/astro-ph.9612049 050000[\affil, \reference, {references}, \acknowledgments, \la].
65526 2013-03-19 05:30:35 /9612/astro-ph.9612050 110000[\picplace].
65527 2013-03-19 05:30:26 /9612/astro-ph.9612052 180000[\affil, \reference, {references}, \ga, \acknowledgments, \la, \keywords]; 1 missing file[paspconf.sty].
65528 2013-03-19 05:30:22 /9612/astro-ph.9612038 5310000[\psfig].
65529 2013-03-19 05:29:44 /9612/astro-ph.9612035 970000[\psfig].
65530 2013-03-19 05:29:43 /9612/astro-ph.9612043 060000[\reference, {references}, \altaffiltext, {resumen}, \altaffilmark]; 1 missing file[rmaaconf.sty].
65531 2013-03-19 05:29:26 /9612/astro-ph.9612030 010000[\uncitename].
65532 2013-03-19 05:29:20 /9612/astro-ph.9612017 020000[\psfig]; 1 missing file[psfig.tex].
65533 2013-03-19 05:29:17 /9612/astro-ph.9612036 050000[\evenpagefooter, \oddpagefooter, \institute, {opening}]; 1 missing file[memsait.sty].
65534 2013-03-19 05:29:15 /9612/astro-ph.9612018 630000[\address, \abstracts]; 1 missing file[Sprocl.sty].
65535 2013-03-19 05:29:08 /9612/astro-ph.9612019 050000[\righthead, \epsfig, \lefthead].
65536 2013-03-19 05:29:07 /9612/astro-ph.9612024 690000[\plotfiddle]; 1 missing file[phase1.sty].
65537 2013-03-19 05:29:00 /9612/astro-ph.9612022 010000[\re].
65538 2013-03-19 05:28:44 /9612/astro-ph.9612025 0110000[\nl, \colhead, \tablehead, \tablewidth, {deluxetable}, Align, \startdata, \tablecaption, \enddata]; 1 missing file[aj_pt4.sty].
65539 2013-03-19 05:28:25 /9612/astro-ph.9612015 050000[\psfig, \acknowledgements, \heading]; 2 missing files[psfig.tex, cmb.sty].
65540 2013-03-19 05:28:17 /9612/astro-ph.9612016 630000[\acknowledgements, \heading]; 1 missing file[cmb.sty].
65541 2013-03-19 05:27:55 /9612/alg-geom.9612007 1420000[\twoheadrightarrow, \newsymbol].
65542 2013-03-19 05:27:48 /9612/astro-ph.9612002 060000[\evenpagefooter, \oddpagefooter, \institute, \acknowledgements, {opening}]; 1 missing file[memsait.sty].
65543 2013-03-19 05:27:42 /9612/astro-ph.9612005 040000[\epsfig].
65544 2013-03-19 05:27:35 /9612/alg-geom.9612008 710000[\cpbar].
65545 2013-03-19 05:25:22 /9611/solv-int.9611004 010000[{instit}].
65546 2013-03-19 05:24:44 /9612/alg-geom.9612002 610000[\transl].
65547 2013-03-19 05:24:42 /9612/alg-geom.9612005 1410000[{sideways}].
65548 2013-03-19 05:23:14 /9611/solv-int.9611002 1120000[{instit}]; 1 missing file[version2.sty].
65549 2013-03-19 05:22:52 /9611/quant-ph.9611039 2100000[\arc, \shade, \drawline].
65550 2013-03-19 05:20:55 /9611/quant-ph.9611036 20330000[\@nil].
65551 2013-03-19 05:20:44 /9611/quant-ph.9611035 1140000[\dottedline, \arc, \shade, \drawline].
65552 2013-03-19 05:17:51 /9611/q-alg.9611032 80240000[\dLine, \ldLine, Align, \rdLine, {diagram}]; 1 missing file[diagrams].
65553 2013-03-19 05:16:20 /9611/q-alg.9611026 3630000[\dsum, \endproof, \TeXButton].
65554 2013-03-19 05:16:06 /9611/quant-ph.9611008 1460000[\@thanks, \@authoraddress, \@preprint, \@date, \@title, \@abstract].
65555 2013-03-19 05:15:51 /9611/q-alg.9611022 1210000[\address].
65556 2013-03-19 05:15:20 /9611/q-alg.9611028 6010000[\columns].
65557 2013-03-19 05:14:40 /9611/q-alg.9611002 2810000[\eightpoint].
65558 2013-03-19 05:14:36 /9611/q-alg.9611018 15120000[\boxtimes, \newsymbol].
65559 2013-03-19 05:14:09 /9611/q-alg.9611011 10170000[\theequation, \transl].
65560 2013-03-19 05:13:29 /9611/q-alg.9611003 020000[\eightpoint].
65561 2013-03-19 05:13:29 /9611/q-alg.9611007 2020000[\address]; 1 missing file[heron2e.sty].
65562 2013-03-19 05:12:25 /9611/physics.9611027 1620000[\address, \adr].
65563 2013-03-19 05:12:04 /9611/physics.9611012 430000[\psfig]; 1 missing file[psfig].
65564 2013-03-19 05:10:46 /9611/nucl-th.9611021 140650000[\setplotarea, \!ybot, \setlinear, \setdashpattern, \!xleft, \setplotsymbol, \ellipticalarc, \!picbox, \!xright, \!ytop, \plot, \axis, \setcoordinatesystem, \setdashes, \setsolid].
65565 2013-03-19 05:09:57 /9611/nucl-th.9611054 930000[\psfig]; 1 missing file[psfig].
65566 2013-03-19 05:06:17 /9611/nucl-ex.9611004 320000[\psfigure]; 1 missing file[psfigure.sty].
65567 2013-03-19 05:06:09 /9611/math.9611226 1820000[\arabic, \eightpoint].
65568 2013-03-19 05:05:15 /9611/math.9611223 040000[\atdef@, \ARROW@, \FN@].
65569 2013-03-19 05:05:07 /9611/math.9611209 12060000[\node, \psfig, \arrow, {diagram}]; 1 missing file[{psfig}].
65570 2013-03-19 05:04:54 /9611/math.9611208 5120000[\psfig]; 1 missing file[{psfig}].
65571 2013-03-19 05:00:46 /9611/hep-th.9611219 5720000[\psfig]; 1 missing file[psfig].
65572 2013-03-19 04:59:42 /9611/hep-th.9611200 8210000[\normalshape].
65573 2013-03-19 04:58:56 /9611/hep-th.9611212 1750000[{English}, {Russian}, \excludeversion, \includeversion]; 1 missing file[version.sty].
65574 2013-03-19 04:58:09 /9611/hep-th.9611199 7710000[\@@underline].
65575 2013-03-19 04:57:28 /9611/hep-th.9611190 86970000[\ex, \mathinner, \nihil].
65576 2013-03-19 04:55:57 /9611/hep-th.9611191 610000[\yearltd].
65577 2013-03-19 04:55:36 /9611/hep-th.9611176 610000[\eqnres@t].
65578 2013-03-19 04:55:25 /9611/hep-th.9611175 050000[\today].
65579 2013-03-19 04:55:25 /9611/hep-th.9611177 910000[\epsfile].
65580 2013-03-19 04:53:55 /9611/hep-th.9611171 2230000[\bezier, \psfig]; 1 missing file[psfig].
65581 2013-03-19 04:53:50 /9611/hep-th.9611156 3210000[\theappendix].
65582 2013-03-19 04:53:01 /9611/hep-th.9611159 14320000[\oldstyle]; 1 missing file[hep-th.9611159.refs].
65583 2013-03-19 04:51:49 /9611/hep-th.9611145 720000[\psfig]; 1 missing file[{psfig}].
65584 2013-03-19 04:49:36 /9611/hep-th.9611141 2310000[\citen].
65585 2013-03-19 04:48:28 /9611/hep-th.9611128 850000[\psfig]; 1 missing file[psfig].
65586 2013-03-19 04:47:13 /9611/hep-th.9611122 1210000[\a].
65587 2013-03-19 04:47:00 /9611/hep-th.9611104 21160000[\preprint, \Real, \ex, \address, \email, \Imag, \CM, \Abstract, \BR, \Bid, \BZ, \CL, \CO, \homo, \coho, \semidir]; 1 missing file[utarticle.cls].
65588 2013-03-19 04:46:49 /9611/hep-th.9611107 220000[\psfig]; 1 missing file[psfig].
65589 2013-03-19 04:45:53 /9611/hep-th.9611088 2260000[\square, \Abstract, \preprint, \oneaddress, \email, \rightsquigarrow]; 1 missing file[utarticle.cls].
65590 2013-03-19 04:43:43 /9611/hep-th.9611066 5420000[\abstracts, \talk].
65591 2013-03-19 04:43:36 /9611/hep-th.9611034 35320000[\underleftarrow, \underrightarrow].
65592 2013-03-19 04:43:24 /9611/hep-th.9611067 6320000[\Bbb]; 1 missing file[refs.tmp].
65593 2013-03-19 04:40:38 /9611/hep-th.9611046 2120000[\startphantom, \gluon, \frontstemmed, \stopphantom, \drawloop, \FLIPPEDFLAT, \drawline, \E, \gluonbackx, \W, \gluonbacky]; 1 missing file[FEYNMAN].
65594 2013-03-19 04:38:48 /9611/hep-th.9611026 3310000[\emline].
65595 2013-03-19 04:37:13 /9611/hep-th.9611018 1620000[\abstracts, \talk].
65596 2013-03-19 04:33:26 /9611/hep-th.9611010 210000[\isucaption].
65597 2013-03-19 04:32:11 /9611/hep-ph.9611462 17180000[\afterpage]; 1 missing file[afterpage.sty].
65598 2013-03-19 04:31:53 /9611/hep-ph.9611461 15520000[\@open@row, Align].
65599 2013-03-19 04:31:24 /9611/hep-ph.9611466 3210000[{centering}].
65600 2013-03-19 04:29:43 /9611/hep-ph.9611453 510000[{centering}].
<<< >>>

[0] [200] [400] [600] [800] [1000] [1200] [1400] [1600] [1800] [2000] [2200] [2400] [2600] [2800] [3000] [3200] [3400] [3600] [3800] [4000] [4200] [4400] [4600] [4800] [5000] [5200] [5400] [5600] [5800] [6000] [6200] [6400] [6600] [6800] [7000] [7200] [7400] [7600] [7800] [8000] [8200] [8400] [8600] [8800] [9000] [9200] [9400] [9600] [9800] [10000] [10200] [10400] [10600] [10800] [11000] [11200] [11400] [11600] [11800] [12000] [12200] [12400] [12600] [12800] [13000] [13200] [13400] [13600] [13800] [14000] [14200] [14400] [14600] [14800] [15000] [15200] [15400] [15600] [15800] [16000] [16200] [16400] [16600] [16800] [17000] [17200] [17400] [17600] [17800] [18000] [18200] [18400] [18600] [18800] [19000] [19200] [19400] [19600] [19800] [20000] [20200] [20400] [20600] [20800] [21000] [21200] [21400] [21600] [21800] [22000] [22200] [22400] [22600] [22800] [23000] [23200] [23400] [23600] [23800] [24000] [24200] [24400] [24600] [24800] [25000] [25200] [25400] [25600] [25800] [26000] [26200] [26400] [26600] [26800] [27000] [27200] [27400] [27600] [27800] [28000] [28200] [28400] [28600] [28800] [29000] [29200] [29400] [29600] [29800] [30000] [30200] [30400] [30600] [30800] [31000] [31200] [31400] [31600] [31800] [32000] [32200] [32400] [32600] [32800] [33000] [33200] [33400] [33600] [33800] [34000] [34200] [34400] [34600] [34800] [35000] [35200] [35400] [35600] [35800] [36000] [36200] [36400] [36600] [36800] [37000] [37200] [37400] [37600] [37800] [38000] [38200] [38400] [38600] [38800] [39000] [39200] [39400] [39600] [39800] [40000] [40200] [40400] [40600] [40800] [41000] [41200] [41400] [41600] [41800] [42000] [42200] [42400] [42600] [42800] [43000] [43200] [43400] [43600] [43800] [44000] [44200] [44400] [44600] [44800] [45000] [45200] [45400] [45600] [45800] [46000] [46200] [46400] [46600] [46800] [47000] [47200] [47400] [47600] [47800] [48000] [48200] [48400] [48600] [48800] [49000] [49200] [49400] [49600] [49800] [50000] [50200] [50400] [50600] [50800] [51000] [51200] [51400] [51600] [51800] [52000] [52200] [52400] [52600] [52800] [53000] [53200] [53400] [53600] [53800] [54000] [54200] [54400] [54600] [54800] [55000] [55200] [55400] [55600] [55800] [56000] [56200] [56400] [56600] [56800] [57000] [57200] [57400] [57600] [57800] [58000] [58200] [58400] [58600] [58800] [59000] [59200] [59400] [59600] [59800] [60000] [60200] [60400] [60600] [60800] [61000] [61200] [61400] [61600] [61800] [62000] [62200] [62400] [62600] [62800] [63000] [63200] [63400] [63600] [63800] [64000] [64200] [64400] [64600] [64800] [65000] [65200] [65400] [65600] [65800] [66000] [66200] [66400] [66600] [66800] [67000] [67200] [67400] [67600] [67800] [68000] [68200] [68400] [68600] [68800] [69000] [69200] [69400] [69600] [69800] [70000] [70200] [70400] [70600] [70800] [71000] [71200] [71400] [71600] [71800] [72000] [72200] [72400] [72600] [72800] [73000] [73200] [73400] [73600] [73800] [74000] [74200] [74400] [74600] [74800] [75000] [75200] [75400] [75600] [75800] [76000] [76200] [76400] [76600] [76800] [77000] [77200] [77400] [77600] [77800] [78000] [78200] [78400] [78600] [78800] [79000] [79200] [79400] [79600] [79800] [80000] [80200] [80400] [80600] [80800] [81000] [81200] [81400] [81600] [81800] [82000] [82200] [82400] [82600] [82800] [83000] [83200] [83400] [83600] [83800] [84000] [84200] [84400] [84600] [84800] [85000] [85200] [85400] [85600] [85800] [86000] [86200] [86400] [86600] [86800] [87000] [87200] [87400] [87600] [87800] [88000] [88200] [88400] [88600] [88800] [89000] [89200] [89400] [89600] [89800] [90000] [90200] [90400] [90600] [90800] [91000] [91200] [91400] [91600] [91800] [92000] [92200] [92400] [92600] [92800] [93000] [93200] [93400] [93600] [93800] [94000] [94200] [94400] [94600] [94800] [95000] [95200] [95400] [95600] [95800] [96000] [96200] [96400] [96600] [96800] [97000] [97200] [97400] [97600] [97800] [98000] [98200] [98400] [98600] [98800] [99000] [99200] [99400] [99600] [99800] [100000] [100200] [100400] [100600] [100800] [101000] [101200] [101400] [101600] [101800] [102000] [102200] [102400] [102600] [102800] [103000] [103200] [103400] [103600] [103800] [104000] [104200] [104400] [104600] [104800] [105000] [105200] [105400] [105600] [105800] [106000] [106200] [106400] [106600] [106800] [107000] [107200] [107400] [107600] [107800] [108000] [108200] [108400] [108600] [108800] [109000] [109200] [109400] [109600] [109800] [110000] [110200] [110400] [110600] [110800] [111000] [111200] [111400] [111600] [111800] [112000] [112200] [112400] [112600] [112800] [113000] [113200] [113400] [113600] [113800] [114000] [114200] [114400] [114600] [114800] [115000] [115200] [115400] [115600] [115800] [116000] [116200] [116400] [116600] [116800] [117000] [117200] [117400] [117600] [117800] [118000] [118200] [118400] [118600] [118800] [119000] [119200] [119400] [119600] [119800] [120000] [120200] [120400] [120600] [120800] [121000] [121200] [121400] [121600] [121800] [122000] [122200] [122400] [122600] [122800] [123000] [123200] [123400] [123600] [123800] [124000] [124200] [124400] [124600] [124800] [125000] [125200] [125400] [125600] [125800] [126000] [126200] [126400] [126600] [126800] [127000] [127200] [127400] [127600] [127800] [128000] [128200] [128400] [128600] [128800] [129000] [129200] [129400] [129600] [129800] [130000] [130200] [130400] [130600] [130800] [131000] [131200] [131400] [131600] [131800] [132000] [132200] [132400] [132600] [132800] [133000] [133200] [133400] [133600] [133800] [134000] [134200] [134400] [134600] [134800] [135000] [135200] [135400] [135600] [135800] [136000] [136200] [136400] [136600] [136800] [137000] [137200] [137400] [137600] [137800] [138000] [138200] [138400] [138600] [138800] [139000] [139200] [139400] [139600] [139800] [140000] [140200] [140400] [140600] [140800] [141000] [141200] [141400] [141600] [141800] [142000] [142200] [142400] [142600] [142800] [143000] [143200] [143400] [143600] [143800] [144000] [144200] [144400] [144600] [144800] [145000] [145200] [145400] [145600] [145800] [146000] [146200] [146400] [146600] [146800] [147000] [147200] [147400] [147600] [147800] [148000] [148200] [148400] [148600] [148800] [149000] [149200] [149400] [149600] [149800] [150000] [150200] [150400] [150600] [150800] [151000] [151200] [151400] [151600] [151800] [152000] [152200] [152400] [152600] [152800] [153000] [153200] [153400] [153600] [153800] [154000] [154200] [154400] [154600] [154800] [155000] [155200] [155400] [155600] [155800] [156000] [156200] [156400] [156600] [156800] [157000] [157200] [157400] [157600] [157800] [158000] [158200] [158400] [158600] [158800] [159000] [159200] [159400] [159600] [159800] [160000] [160200] [160400] [160600] [160800] [161000] [161200] [161400] [161600] [161800] [162000] [162200] [162400] [162600] [162800] [163000] [163200] [163400] [163600] [163800] [164000] [164200] [164400] [164600]
 
  The service has been written by
Heinrich Stamerjohanns